Time;durP1;ratioP1;P1;durP2;ratioP2;P2;SDS_P1;SDS_P2;PMS_P1;PMS_P2;Temp;Humidity;BMP_temperature;BMP_pressure;BME280_temperature;BME280_humidity;BME280_pressure;Samples;Min_cycle;Max_cycle;Signal;HPM_P1;HPM_P2
2022/09/19 00:00:40;;;;;;;9.48;1.63;;;11.50;99.90;;;;;;5103486;28;20039;-76
2022/09/19 00:03:06;;;;;;;14.43;2.20;;;11.60;99.90;;;;;;5089151;28;20137;-77
2022/09/19 00:05:32;;;;;;;12.38;2.42;;;11.50;99.90;;;;;;5094467;28;20046;-76
2022/09/19 00:07:57;;;;;;;13.73;2.05;;;11.50;99.90;;;;;;5084784;28;20032;-76
2022/09/19 00:10:23;;;;;;;13.20;2.10;;;11.50;99.90;;;;;;5105985;28;20101;-75
2022/09/19 00:12:48;;;;;;;29.90;2.70;;;11.50;99.90;;;;;;5108229;28;20453;-76
2022/09/19 00:15:14;;;;;;;12.02;2.20;;;11.60;99.90;;;;;;5106960;28;20035;-76
2022/09/19 00:17:39;;;;;;;9.70;2.05;;;11.60;99.90;;;;;;5108979;28;20028;-77
2022/09/19 00:20:06;;;;;;;15.57;3.03;;;11.50;99.90;;;;;;5110700;28;20039;-76
2022/09/19 00:22:32;;;;;;;16.27;2.90;;;11.60;99.90;;;;;;5106882;28;20474;-76
2022/09/19 00:24:58;;;;;;;16.95;2.13;;;11.60;99.90;;;;;;5112504;28;20123;-76
2022/09/19 00:27:25;;;;;;;10.90;1.80;;;11.60;99.90;;;;;;5112340;28;20127;-76
2022/09/19 00:29:52;;;;;;;17.95;4.45;;;11.60;99.90;;;;;;5087541;28;20051;-76
2022/09/19 00:32:20;;;;;;;13.60;1.73;;;11.60;99.90;;;;;;5099765;28;20097;-76
2022/09/19 00:34:48;;;;;;;14.02;1.85;;;11.50;99.90;;;;;;5074965;28;20097;-76
2022/09/19 00:37:15;;;;;;;14.45;2.05;;;11.60;99.90;;;;;;5091135;28;20043;-76
2022/09/19 00:39:41;;;;;;;7.15;1.50;;;11.50;99.90;;;;;;5110033;28;20085;-76
2022/09/19 00:42:22;;;;;;;20.17;2.70;;;11.50;99.90;;;;;;5092963;28;20040;-76
2022/09/19 00:45:15;;;;;;;18.65;1.83;;;11.50;99.90;;;;;;5074587;28;20040;-77
2022/09/19 00:47:46;;;;;;;13.98;2.00;;;11.50;99.90;;;;;;5094058;28;20047;-77
2022/09/19 00:50:21;;;;;;;14.07;2.00;;;11.50;99.90;;;;;;5091837;28;20047;-75
2022/09/19 00:52:52;;;;;;;14.20;2.55;;;11.50;99.90;;;;;;5090481;28;20036;-76
2022/09/19 00:55:18;;;;;;;14.73;2.20;;;11.60;99.90;;;;;;5099905;28;20124;-76
2022/09/19 00:57:52;;;;;;;15.85;2.28;;;11.60;99.90;;;;;;5107187;28;20515;-76
2022/09/19 01:00:18;;;;;;;19.40;2.50;;;11.60;99.90;;;;;;5087674;28;20112;-77
2022/09/19 01:02:44;;;;;;;14.15;1.95;;;11.60;99.90;;;;;;5103470;28;20078;-76
2022/09/19 01:05:10;;;;;;;13.50;1.60;;;11.60;99.90;;;;;;5090713;28;20035;-76
2022/09/19 01:08:08;;;;;;;11.07;1.90;;;11.60;99.90;;;;;;5102966;28;20063;-76
2022/09/19 01:10:51;;;;;;;14.07;2.28;;;11.60;99.90;;;;;;5096691;28;20036;-76
2022/09/19 01:13:30;;;;;;;11.70;1.85;;;11.60;99.90;;;;;;5110206;28;20501;-77
2022/09/19 01:16:04;;;;;;;19.13;2.53;;;11.60;99.90;;;;;;5110730;28;20452;-76
2022/09/19 01:18:42;;;;;;;17.05;2.20;;;11.60;99.90;;;;;;5099766;28;20044;-76
2022/09/19 01:21:40;;;;;;;14.00;2.20;;;11.70;99.90;;;;;;5079339;28;20091;-77
2022/09/19 01:24:42;;;;;;;16.98;1.83;;;11.80;99.90;;;;;;5086951;28;20066;-77
2022/09/19 01:27:22;;;;;;;18.10;2.45;;;11.80;99.90;;;;;;5097059;28;20063;-77
2022/09/19 01:30:00;;;;;;;12.77;2.00;;;11.80;99.90;;;;;;5092924;28;20043;-77
2022/09/19 01:32:33;;;;;;;8.10;1.75;;;11.80;99.90;;;;;;5110917;28;20439;-76
2022/09/19 01:35:03;;;;;;;12.20;2.00;;;11.70;99.90;;;;;;5107736;28;20046;-76
2022/09/19 01:38:11;;;;;;;9.35;1.58;;;11.70;99.90;;;;;;5083099;28;20493;-76
2022/09/19 01:40:37;;;;;;;12.10;1.67;;;11.60;99.90;;;;;;5069829;28;20036;-76
2022/09/19 01:43:05;;;;;;;10.05;1.50;;;11.60;99.90;;;;;;5098513;28;20055;-75
2022/09/19 01:45:33;;;;;;;13.23;2.28;;;11.60;99.90;;;;;;5106030;28;20101;-76
2022/09/19 01:48:02;;;;;;;14.27;1.83;;;11.60;99.90;;;;;;5090348;28;20092;-75
2022/09/19 01:50:35;;;;;;;8.98;1.50;;;11.60;99.90;;;;;;5074845;28;20059;-76
2022/09/19 01:53:19;;;;;;;13.70;1.92;;;11.60;99.90;;;;;;5100449;28;20040;-76
2022/09/19 01:56:05;;;;;;;12.70;1.73;;;11.60;99.90;;;;;;5089366;28;20032;-76
2022/09/19 01:59:03;;;;;;;10.13;1.55;;;11.70;99.90;;;;;;5110696;28;20043;-76
2022/09/19 02:01:48;;;;;;;8.73;1.50;;;11.70;99.90;;;;;;5091804;28;20045;-76
2022/09/19 02:04:24;;;;;;;13.15;2.08;;;11.60;99.90;;;;;;5106494;28;20070;-76
2022/09/19 02:07:12;;;;;;;13.90;1.75;;;11.60;99.90;;;;;;5110672;28;20643;-76
2022/09/19 02:09:55;;;;;;;14.52;2.00;;;11.60;99.90;;;;;;5108043;28;20039;-76
2022/09/19 02:12:23;;;;;;;9.80;1.70;;;11.50;99.90;;;;;;5104397;28;20528;-76
2022/09/19 02:14:55;;;;;;;9.60;1.58;;;11.50;99.90;;;;;;5107253;28;20131;-76
2022/09/19 02:17:44;;;;;;;13.98;2.33;;;11.50;99.90;;;;;;5110262;28;20054;-76
2022/09/19 02:20:15;;;;;;;19.77;1.98;;;11.50;99.90;;;;;;5108939;28;20078;-76
2022/09/19 02:22:47;;;;;;;13.90;1.83;;;11.60;99.90;;;;;;5103544;28;20058;-77
2022/09/19 02:25:20;;;;;;;13.30;2.20;;;11.60;99.90;;;;;;5092201;28;20035;-76
2022/09/19 02:27:51;;;;;;;14.38;2.40;;;11.60;99.90;;;;;;5093207;28;20050;-76
2022/09/19 02:30:20;;;;;;;19.83;2.83;;;11.60;99.90;;;;;;5110458;28;20071;-75
2022/09/19 02:32:48;;;;;;;10.63;1.90;;;11.60;99.90;;;;;;5091965;28;20047;-75
2022/09/19 02:35:24;;;;;;;10.57;1.90;;;11.60;99.90;;;;;;5098805;28;20252;-76
2022/09/19 02:37:59;;;;;;;9.07;1.95;;;11.60;99.90;;;;;;5108332;28;20028;-77
2022/09/19 02:40:35;;;;;;;11.35;2.00;;;11.60;99.90;;;;;;5110592;28;20081;-76
2022/09/19 02:43:04;;;;;;;9.77;1.65;;;11.60;99.90;;;;;;5088637;28;20046;-76
2022/09/19 02:45:32;;;;;;;11.48;1.48;;;11.70;99.90;;;;;;5108566;28;20404;-76
2022/09/19 02:48:29;;;;;;;15.10;1.67;;;11.60;99.90;;;;;;5114013;28;20524;-76
2022/09/19 02:51:05;;;;;;;10.73;1.25;;;11.60;99.90;;;;;;5107658;28;20035;-76
2022/09/19 02:53:39;;;;;;;10.05;1.35;;;11.60;99.90;;;;;;5082939;28;20153;-76
2022/09/19 02:56:06;;;;;;;10.88;2.08;;;11.60;99.90;;;;;;5113713;28;20039;-75
2022/09/19 02:58:38;;;;;;;11.98;1.50;;;11.60;99.90;;;;;;5111622;28;20042;-75
2022/09/19 03:01:08;;;;;;;13.60;2.42;;;11.60;99.90;;;;;;5110613;28;20040;-76
2022/09/19 03:04:18;;;;;;;13.55;2.00;;;11.60;99.90;;;;;;5112171;28;20142;-76
2022/09/19 03:07:06;;;;;;;12.60;1.92;;;11.60;99.90;;;;;;5063363;28;20047;-76
2022/09/19 03:09:32;;;;;;;13.05;1.95;;;11.70;99.90;;;;;;5111760;28;20036;-76
2022/09/19 03:12:18;;;;;;;9.27;1.55;;;11.70;99.90;;;;;;5111667;28;20656;-77
2022/09/19 03:14:45;;;;;;;11.82;1.90;;;11.70;99.90;;;;;;5093839;28;20035;-77
2022/09/19 03:17:16;;;;;;;7.72;1.50;;;11.70;99.90;;;;;;5109671;28;20111;-76
2022/09/19 03:19:45;;;;;;;13.27;1.77;;;11.70;99.90;;;;;;5113847;28;20451;-77
2022/09/19 03:22:11;;;;;;;10.95;1.73;;;11.60;99.90;;;;;;5111506;28;20047;-75
2022/09/19 03:24:38;;;;;;;11.55;2.30;;;11.60;99.90;;;;;;5106506;28;20489;-76
2022/09/19 03:27:04;;;;;;;15.15;2.13;;;11.60;99.90;;;;;;5112315;28;20047;-76
2022/09/19 03:29:30;;;;;;;17.88;2.58;;;11.60;99.90;;;;;;5107476;28;20089;-77
2022/09/19 03:31:56;;;;;;;13.43;2.10;;;11.60;99.90;;;;;;5106132;28;20110;-76
2022/09/19 03:34:22;;;;;;;14.32;1.73;;;11.60;99.90;;;;;;5113550;28;20591;-76
2022/09/19 03:36:48;;;;;;;9.82;1.83;;;11.70;99.90;;;;;;5093538;28;20124;-76
2022/09/19 03:39:13;;;;;;;16.70;2.17;;;11.60;99.90;;;;;;5111927;28;20412;-75
2022/09/19 03:41:39;;;;;;;16.40;2.05;;;11.60;99.90;;;;;;5086584;28;20040;-76
2022/09/19 03:44:05;;;;;;;11.50;1.92;;;11.70;99.90;;;;;;5110658;28;20046;-76
2022/09/19 03:46:31;;;;;;;17.40;2.17;;;11.60;99.90;;;;;;5095938;28;20085;-77
2022/09/19 03:49:00;;;;;;;13.80;2.00;;;11.70;99.90;;;;;;5111375;28;20035;-78
2022/09/19 03:51:25;;;;;;;17.38;2.00;;;11.70;99.90;;;;;;5112714;28;20082;-76
2022/09/19 03:53:51;;;;;;;13.60;1.95;;;11.70;99.90;;;;;;5102624;28;20067;-77
2022/09/19 03:56:17;;;;;;;15.02;1.85;;;11.80;99.90;;;;;;5075765;28;20040;-77
2022/09/19 03:58:43;;;;;;;13.57;1.80;;;11.70;99.90;;;;;;5085144;28;20035;-77
2022/09/19 04:01:12;;;;;;;14.48;2.65;;;11.70;99.90;;;;;;5107960;28;20120;-77
2022/09/19 04:03:38;;;;;;;15.82;2.83;;;11.70;99.90;;;;;;5108463;28;20496;-77
2022/09/19 04:06:04;;;;;;;17.70;2.55;;;11.70;99.90;;;;;;5092152;28;20039;-77
2022/09/19 04:08:30;;;;;;;14.48;2.55;;;11.70;99.90;;;;;;5095907;28;20432;-76
2022/09/19 04:10:56;;;;;;;17.48;2.30;;;11.70;99.90;;;;;;5095907;28;20043;-77
2022/09/19 04:13:22;;;;;;;16.65;2.67;;;11.80;99.90;;;;;;5111205;28;20062;-77
2022/09/19 04:15:48;;;;;;;20.80;2.25;;;11.80;99.90;;;;;;5086094;28;20047;-77
2022/09/19 04:18:15;;;;;;;15.98;2.30;;;11.90;99.90;;;;;;5088985;28;20059;-76
2022/09/19 04:20:40;;;;;;;19.20;2.45;;;11.90;99.90;;;;;;5088320;28;20043;-76
2022/09/19 04:23:06;;;;;;;15.73;2.20;;;11.90;99.90;;;;;;5091880;28;20039;-76
2022/09/19 04:25:35;;;;;;;14.02;1.90;;;11.90;99.90;;;;;;5098970;28;20036;-76
2022/09/19 04:28:03;;;;;;;12.10;1.90;;;11.90;99.90;;;;;;5104105;28;20041;-76
2022/09/19 04:30:30;;;;;;;17.15;2.30;;;11.90;99.90;;;;;;5112473;28;20083;-76
2022/09/19 04:32:58;;;;;;;17.75;2.17;;;11.90;99.90;;;;;;5095076;28;20145;-76
2022/09/19 04:35:24;;;;;;;16.60;2.45;;;11.90;99.90;;;;;;5108870;28;20063;-76
2022/09/19 04:37:49;;;;;;;13.00;2.13;;;11.90;99.90;;;;;;5104835;28;20039;-76
2022/09/19 04:40:15;;;;;;;14.60;2.42;;;11.90;99.90;;;;;;5112326;28;20516;-77
2022/09/19 04:42:41;;;;;;;17.27;2.30;;;11.90;99.90;;;;;;5112264;28;20042;-77
2022/09/19 04:45:07;;;;;;;15.98;2.95;;;11.90;99.90;;;;;;5106389;28;20039;-76
2022/09/19 04:47:36;;;;;;;21.48;2.08;;;11.80;99.90;;;;;;5112065;28;20094;-78
2022/09/19 04:50:03;;;;;;;14.10;2.08;;;11.90;99.90;;;;;;5112295;28;20420;-78
2022/09/19 04:52:29;;;;;;;17.85;2.45;;;11.90;99.90;;;;;;5099625;28;20064;-77
2022/09/19 04:54:54;;;;;;;22.02;2.63;;;11.90;99.90;;;;;;5105143;28;20035;-78
2022/09/19 04:57:20;;;;;;;16.38;2.80;;;11.90;99.90;;;;;;5111894;28;20127;-77
2022/09/19 04:59:46;;;;;;;16.02;2.53;;;11.90;99.90;;;;;;5112193;28;20505;-77
2022/09/19 05:02:12;;;;;;;15.73;2.35;;;11.80;99.90;;;;;;5096460;28;20032;-77
2022/09/19 05:04:39;;;;;;;15.32;2.15;;;11.80;99.90;;;;;;5084309;28;20574;-77
2022/09/19 05:07:04;;;;;;;14.90;2.13;;;11.80;99.90;;;;;;5108854;28;20122;-77
2022/09/19 05:09:30;;;;;;;14.05;1.88;;;11.70;99.90;;;;;;5101995;28;20115;-77
2022/09/19 05:11:56;;;;;;;14.40;1.77;;;11.70;99.90;;;;;;5110054;28;20112;-78
2022/09/19 05:14:28;;;;;;;13.27;2.08;;;11.70;99.90;;;;;;5107912;28;20572;-76
2022/09/19 05:16:54;;;;;;;15.55;2.00;;;11.70;99.90;;;;;;5091835;28;20043;-77
2022/09/19 05:19:22;;;;;;;16.42;2.13;;;11.70;99.90;;;;;;5079528;28;20047;-78
2022/09/19 05:21:48;;;;;;;16.60;2.05;;;11.70;99.90;;;;;;5111311;28;20053;-78
2022/09/19 05:24:15;;;;;;;14.20;1.95;;;11.60;99.90;;;;;;5092189;28;20040;-77
2022/09/19 05:26:40;;;;;;;7.35;1.70;;;11.70;99.90;;;;;;5094311;28;20044;-77
2022/09/19 05:29:07;;;;;;;15.50;2.10;;;11.70;99.90;;;;;;5111275;28;20036;-78
2022/09/19 05:31:35;;;;;;;16.75;2.30;;;11.60;99.90;;;;;;5106622;28;20036;-77
2022/09/19 05:34:01;;;;;;;17.58;2.10;;;11.60;99.90;;;;;;5078461;28;20046;-78
2022/09/19 05:36:27;;;;;;;18.15;2.30;;;11.60;99.90;;;;;;5106379;28;20036;-78
2022/09/19 05:38:52;;;;;;;19.45;3.33;;;11.50;99.90;;;;;;5089661;28;20066;-77
2022/09/19 05:41:18;;;;;;;16.77;2.35;;;11.50;99.90;;;;;;5098236;28;20636;-78
2022/09/19 05:43:44;;;;;;;15.93;2.45;;;11.60;99.90;;;;;;5077357;28;20047;-78
2022/09/19 05:46:10;;;;;;;21.85;2.35;;;11.60;99.90;;;;;;5105849;28;20044;-77
2022/09/19 05:48:37;;;;;;;14.20;2.80;;;11.60;99.90;;;;;;5078801;28;20555;-78
2022/09/19 05:51:03;;;;;;;18.50;2.28;;;11.70;99.90;;;;;;5072531;28;20524;-78
2022/09/19 05:56:12;;;;;;;13.88;2.00;;;11.80;99.90;;;;;;5104334;28;20481;-78
2022/09/19 05:58:38;;;;;;;13.52;2.03;;;11.80;99.90;;;;;;5098225;28;20063;-78
2022/09/19 06:01:08;;;;;;;11.93;2.00;;;11.80;99.90;;;;;;5085847;28;20082;-78
2022/09/19 06:03:35;;;;;;;11.25;2.22;;;11.80;99.90;;;;;;5110706;28;20514;-78
2022/09/19 06:06:01;;;;;;;14.70;2.50;;;11.80;99.90;;;;;;5088398;28;20073;-78
2022/09/19 06:08:26;;;;;;;15.80;2.28;;;11.80;99.90;;;;;;5108203;28;20517;-78
2022/09/19 06:10:52;;;;;;;14.13;2.28;;;11.80;99.90;;;;;;5089903;28;20032;-78
2022/09/19 06:13:20;;;;;;;15.52;2.28;;;11.80;99.90;;;;;;5091117;28;20051;-78
2022/09/19 06:15:46;;;;;;;10.85;2.00;;;11.90;99.90;;;;;;5092139;28;20043;-78
2022/09/19 06:18:13;;;;;;;13.85;2.33;;;11.90;99.90;;;;;;5099034;28;20028;-80
2022/09/19 06:20:43;;;;;;;16.40;2.30;;;11.90;99.90;;;;;;5092428;28;20112;-79
2022/09/19 06:23:10;;;;;;;16.08;2.45;;;11.90;99.90;;;;;;5094428;28;20043;-78
2022/09/19 06:25:37;;;;;;;24.77;3.45;;;11.90;99.90;;;;;;5091212;28;20040;-79
2022/09/19 06:28:10;;;;;;;11.60;1.85;;;12.00;99.90;;;;;;5091506;28;20048;-78
2022/09/19 06:30:35;;;;;;;10.05;3.13;;;12.10;99.90;;;;;;5092974;28;20081;-80
2022/09/19 06:33:01;;;;;;;9.93;1.52;;;12.10;99.90;;;;;;5095516;28;20482;-78
2022/09/19 06:35:28;;;;;;;10.75;1.60;;;12.10;99.90;;;;;;5099212;28;20143;-80
2022/09/19 06:38:02;;;;;;;12.52;2.13;;;12.00;99.90;;;;;;5103966;28;20088;-80
2022/09/19 06:40:29;;;;;;;11.65;1.90;;;12.00;99.90;;;;;;5092045;28;20129;-79
2022/09/19 06:43:03;;;;;;;8.40;1.77;;;11.90;99.90;;;;;;5085417;28;20110;-79
2022/09/19 06:45:30;;;;;;;12.10;1.55;;;11.90;99.90;;;;;;5087844;28;20079;-78
2022/09/19 06:48:00;;;;;;;11.20;1.65;;;11.90;99.90;;;;;;5088209;28;20035;-78
2022/09/19 06:50:26;;;;;;;12.40;2.25;;;11.90;99.90;;;;;;5104537;28;20093;-78
2022/09/19 06:52:52;;;;;;;6.40;1.63;;;12.00;99.90;;;;;;5111248;28;20454;-79
2022/09/19 06:55:18;;;;;;;9.32;1.35;;;12.00;99.90;;;;;;5082299;28;20064;-79
2022/09/19 06:57:55;;;;;;;9.05;1.83;;;12.10;99.90;;;;;;5092405;28;20036;-81
2022/09/19 07:00:24;;;;;;;9.02;1.73;;;12.20;99.90;;;;;;5113379;28;20050;-80
2022/09/19 07:03:01;;;;;;;8.75;1.60;;;12.20;99.90;;;;;;5095011;28;20035;-79
2022/09/19 07:05:38;;;;;;;6.20;2.03;;;12.30;99.90;;;;;;5078221;28;20036;-80
2022/09/19 07:08:04;;;;;;;6.05;1.40;;;12.30;99.90;;;;;;5109987;28;20055;-79
2022/09/19 07:10:29;;;;;;;6.35;1.48;;;12.40;99.90;;;;;;5085721;28;20074;-79
2022/09/19 07:12:59;;;;;;;8.18;1.58;;;12.40;99.90;;;;;;5090406;28;20145;-79
2022/09/19 07:15:24;;;;;;;12.68;1.90;;;12.50;99.90;;;;;;5082524;28;20119;-79
2022/09/19 07:17:54;;;;;;;8.00;1.48;;;12.60;99.90;;;;;;5088565;28;20622;-79
2022/09/19 07:20:20;;;;;;;14.02;2.22;;;12.80;99.90;;;;;;5110674;28;20105;-79
2022/09/19 07:22:45;;;;;;;16.33;2.35;;;12.90;99.90;;;;;;5107078;28;20044;-78
2022/09/19 07:25:11;;;;;;;16.20;2.58;;;13.10;99.90;;;;;;5109784;28;20039;-79
2022/09/19 07:27:37;;;;;;;14.07;2.35;;;13.30;99.90;;;;;;5094185;28;20031;-79
2022/09/19 07:30:06;;;;;;;14.88;2.30;;;13.40;99.90;;;;;;5092683;28;20107;-80
2022/09/19 07:32:32;;;;;;;13.90;2.35;;;13.60;99.90;;;;;;5111152;28;20400;-80
2022/09/19 07:34:57;;;;;;;13.98;2.20;;;13.80;99.90;;;;;;5114973;28;20040;-79
2022/09/19 07:37:23;;;;;;;14.73;2.33;;;13.80;99.90;;;;;;5110768;28;20039;-79
2022/09/19 07:39:49;;;;;;;14.85;2.40;;;13.80;99.90;;;;;;5112585;28;20135;-78
2022/09/19 07:42:14;;;;;;;16.83;2.35;;;13.60;99.90;;;;;;5106147;28;20040;-79
2022/09/19 07:44:40;;;;;;;17.10;2.92;;;13.50;99.90;;;;;;5078044;28;20079;-79
2022/09/19 07:49:50;;;;;;;13.20;2.00;;;13.30;99.90;;;;;;5094766;28;20583;-78
2022/09/19 07:52:15;;;;;;;14.32;2.55;;;13.40;99.90;;;;;;5094954;28;20044;-79
2022/09/19 07:54:41;;;;;;;8.43;1.60;;;13.30;99.90;;;;;;5094233;28;20075;-79
2022/09/19 07:57:07;;;;;;;13.77;2.40;;;13.30;99.90;;;;;;5108201;28;20035;-79
2022/09/19 07:59:33;;;;;;;13.68;2.33;;;13.20;99.90;;;;;;5098531;28;20039;-78
2022/09/19 08:01:58;;;;;;;11.88;1.98;;;13.20;99.90;;;;;;5094044;28;20044;-78
2022/09/19 08:04:24;;;;;;;15.65;2.42;;;13.20;99.90;;;;;;5078210;28;20036;-78
2022/09/19 08:06:49;;;;;;;15.68;2.70;;;13.20;99.90;;;;;;5078320;28;20489;-78
2022/09/19 08:09:15;;;;;;;18.27;2.17;;;13.10;99.90;;;;;;5114742;28;20044;-78
2022/09/19 08:11:41;;;;;;;13.90;2.20;;;13.20;99.90;;;;;;5114306;28;20040;-78
2022/09/19 08:14:07;;;;;;;15.48;2.40;;;13.20;99.90;;;;;;5097818;28;20035;-78
2022/09/19 08:16:32;;;;;;;10.70;2.35;;;13.40;99.90;;;;;;5102404;28;20493;-79
2022/09/19 08:18:58;;;;;;;17.10;2.72;;;13.70;99.90;;;;;;5095214;28;20044;-79
2022/09/19 08:21:24;;;;;;;21.55;3.05;;;14.00;99.90;;;;;;5095304;28;20040;-79
2022/09/19 08:23:50;;;;;;;17.83;2.70;;;14.20;99.90;;;;;;5094261;28;20122;-78
2022/09/19 08:26:16;;;;;;;9.70;2.10;;;14.40;99.90;;;;;;5095552;28;20075;-80
2022/09/19 08:28:42;;;;;;;13.80;2.13;;;14.50;99.90;;;;;;5110187;28;20032;-80
2022/09/19 08:31:08;;;;;;;16.15;2.22;;;14.60;99.90;;;;;;5104205;28;20044;-78
2022/09/19 08:33:34;;;;;;;13.25;2.17;;;14.60;99.90;;;;;;5079454;28;20040;-79
2022/09/19 08:36:00;;;;;;;15.80;2.28;;;14.70;99.90;;;;;;5085793;28;20046;-80
2022/09/19 08:38:26;;;;;;;15.93;2.25;;;14.60;99.90;;;;;;5086472;28;20405;-79
2022/09/19 08:41:06;;;;;;;18.02;3.22;;;14.60;99.90;;;;;;5096747;28;20046;-78
2022/09/19 08:43:54;;;;;;;15.88;2.25;;;14.70;99.90;;;;;;5100852;28;20043;-79
2022/09/19 08:46:39;;;;;;;11.27;2.15;;;14.80;99.90;;;;;;5107065;28;20092;-79
2022/09/19 08:49:13;;;;;;;12.40;2.03;;;15.00;99.90;;;;;;5087998;28;20558;-79
2022/09/19 08:51:38;;;;;;;12.07;2.03;;;15.10;99.90;;;;;;5104061;28;20355;-78
2022/09/19 08:54:35;;;;;;;14.63;2.17;;;15.20;99.90;;;;;;5113838;28;20043;-78
2022/09/19 08:57:01;;;;;;;13.82;1.70;;;15.30;99.90;;;;;;5076235;28;20169;-75
2022/09/19 08:59:34;;;;;;;9.48;1.60;;;15.40;99.90;;;;;;5106470;28;20779;-81
2022/09/19 09:02:32;;;;;;;12.33;1.90;;;15.50;99.90;;;;;;5105758;28;20088;-80
2022/09/19 09:04:59;;;;;;;14.48;1.67;;;15.60;99.90;;;;;;5102023;28;20301;-77
2022/09/19 09:07:30;;;;;;;12.43;1.73;;;15.70;99.90;;;;;;5099358;28;20036;-79
2022/09/19 09:10:15;;;;;;;10.93;1.65;;;15.80;99.90;;;;;;5103272;28;20505;-78
2022/09/19 09:13:01;;;;;;;12.13;2.05;;;15.90;99.90;;;;;;5076531;28;20051;-80
2022/09/19 09:15:45;;;;;;;16.63;2.20;;;16.10;99.90;;;;;;5102330;28;20449;-77
2022/09/19 09:18:22;;;;;;;11.98;2.03;;;16.00;99.90;;;;;;5100591;28;20107;-78
2022/09/19 09:21:31;;;;;;;11.75;2.25;;;15.80;99.90;;;;;;5078467;28;20046;-76
2022/09/19 09:24:03;;;;;;;13.95;1.85;;;15.60;99.90;;;;;;5103037;28;20519;-77
2022/09/19 09:26:36;;;;;;;12.48;2.20;;;15.50;99.90;;;;;;5102597;28;20501;-78
2022/09/19 09:29:16;;;;;;;6.75;1.58;;;15.50;99.90;;;;;;5078981;28;20039;-77
2022/09/19 09:31:47;;;;;;;14.25;2.33;;;15.50;99.90;;;;;;5107023;28;20039;-77
2022/09/19 09:34:23;;;;;;;9.65;2.03;;;15.40;99.90;;;;;;5107803;28;20069;-77
2022/09/19 09:37:04;;;;;;;11.68;3.00;;;15.30;99.90;;;;;;5090205;28;20069;-77
2022/09/19 09:40:01;;;;;;;10.98;1.77;;;15.30;99.90;;;;;;5099321;28;20371;-77
2022/09/19 09:42:37;;;;;;;11.77;1.80;;;15.50;99.90;;;;;;5094794;28;20496;-79
2022/09/19 09:45:20;;;;;;;12.18;1.75;;;15.60;99.90;;;;;;5117861;27;20489;-75
2022/09/19 09:47:58;;;;;;;12.43;2.05;;;15.80;99.90;;;;;;5102136;28;20040;-78
2022/09/19 09:50:46;;;;;;;9.93;1.70;;;15.70;99.90;;;;;;5107612;28;20126;-76
2022/09/19 09:53:37;;;;;;;12.07;1.98;;;15.70;99.90;;;;;;5104185;28;20108;-76
2022/09/19 09:56:19;;;;;;;8.95;1.77;;;15.60;99.90;;;;;;5104150;28;20043;-76
2022/09/19 10:03:33;;;;;;;9.38;1.70;;;15.60;99.90;;;;;;5102326;28;20028;-77
2022/09/19 10:04:52;;;;;;;17.88;3.55;;;15.30;99.90;;;;;;5103653;28;20124;-75
2022/09/19 10:07:34;;;;;;;11.93;2.20;;;14.90;99.90;;;;;;5106575;28;20429;-76
2022/09/19 10:10:20;;;;;;;10.45;2.20;;;14.40;99.90;;;;;;5092721;28;20039;-75
2022/09/19 10:12:58;;;;;;;10.25;2.22;;;13.90;99.90;;;;;;5102215;28;20516;-76
2022/09/19 10:15:25;;;;;;;10.48;2.00;;;13.70;99.90;;;;;;5101054;28;20072;-76
2022/09/19 10:18:06;;;;;;;8.77;2.15;;;13.60;99.90;;;;;;5091349;28;20040;-75
2022/09/19 10:20:48;;;;;;;11.27;1.92;;;13.60;99.90;;;;;;5096362;28;20085;-76
2022/09/19 10:23:25;;;;;;;9.40;2.15;;;13.60;99.90;;;;;;5106663;28;20540;-75
2022/09/19 10:26:00;;;;;;;11.25;1.77;;;13.60;99.90;;;;;;5097410;28;20092;-75
2022/09/19 10:28:43;;;;;;;12.32;2.00;;;13.70;99.90;;;;;;5097119;28;20042;-75
2022/09/19 10:31:23;;;;;;;9.77;1.70;;;13.70;99.90;;;;;;5106792;28;20035;-75
2022/09/19 10:33:50;;;;;;;13.52;2.78;;;13.70;99.90;;;;;;5105676;28;20058;-75
2022/09/19 10:36:25;;;;;;;14.32;2.35;;;13.80;99.90;;;;;;5104010;28;20067;-76
2022/09/19 10:38:58;;;;;;;11.15;2.25;;;13.90;99.90;;;;;;5104934;28;20035;-76
2022/09/19 10:41:28;;;;;;;9.25;2.17;;;14.10;99.90;;;;;;5093565;28;20032;-76
2022/09/19 10:44:10;;;;;;;14.23;2.63;;;14.40;99.90;;;;;;5110344;28;20555;-75
2022/09/19 10:46:43;;;;;;;10.95;1.90;;;14.70;99.90;;;;;;5100924;28;20377;-76
2022/09/19 10:49:25;;;;;;;11.50;1.60;;;14.90;99.90;;;;;;5107619;28;20039;-75
2022/09/19 10:51:53;;;;;;;14.07;2.22;;;14.70;99.90;;;;;;5094495;28;20055;-75
2022/09/19 10:54:40;;;;;;;11.95;2.10;;;14.70;99.90;;;;;;5100485;28;20523;-76
2022/09/19 10:57:45;;;;;;;12.02;1.90;;;14.70;99.90;;;;;;5104053;28;20051;-75
2022/09/19 11:00:21;;;;;;;9.77;1.92;;;14.90;99.90;;;;;;5053952;28;20506;-75
2022/09/19 11:03:26;;;;;;;9.25;1.77;;;15.20;99.90;;;;;;5070277;28;20032;-75
2022/09/19 11:06:12;;;;;;;;;;;15.60;99.90;;;;;;5093243;28;20252;-74
2022/09/19 11:08:50;;;;;;;15.85;2.00;;;15.60;99.90;;;;;;5105746;28;19938;-76
2022/09/19 11:11:37;;;;;;;13.27;2.15;;;15.60;99.90;;;;;;5111594;28;20047;-75
2022/09/19 11:14:07;;;;;;;16.52;2.92;;;15.40;99.90;;;;;;5110280;28;20518;-76
2022/09/19 11:17:03;;;;;;;13.15;2.63;;;15.20;99.90;;;;;;5105205;28;20427;-75
2022/09/19 11:19:28;;;;;;;10.70;2.10;;;15.10;99.90;;;;;;5100128;28;20036;-76
2022/09/19 11:22:19;;;;;;;12.05;2.15;;;15.30;99.90;;;;;;5101862;28;20115;-75
2022/09/19 11:25:23;;;;;;;11.57;2.08;;;15.70;99.90;;;;;;5106170;28;20422;-75
2022/09/19 11:28:12;;;;;;;14.98;2.80;;;15.70;99.90;;;;;;5100389;28;20090;-76
2022/09/19 11:31:05;;;;;;;11.68;1.95;;;15.60;99.90;;;;;;5102986;28;20101;-75
2022/09/19 11:33:45;;;;;;;16.75;1.85;;;15.40;99.90;;;;;;5105763;28;20036;-74
2022/09/19 11:36:23;;;;;;;9.65;1.70;;;15.30;99.90;;;;;;5109588;28;20043;-75
2022/09/19 11:39:06;;;;;;;13.48;1.83;;;15.30;99.90;;;;;;5094942;28;20040;-75
2022/09/19 11:42:12;;;;;;;13.07;1.83;;;15.70;99.90;;;;;;5111683;28;20043;-75
2022/09/19 11:44:43;;;;;;;12.13;1.83;;;16.10;99.90;;;;;;5084045;28;20036;-75
2022/09/19 11:47:35;;;;;;;9.52;1.35;;;16.00;99.90;;;;;;5096133;28;20440;-75
2022/09/19 11:50:29;;;;;;;10.00;2.15;;;15.90;99.90;;;;;;5107541;27;20070;-75
2022/09/19 11:53:31;;;;;;;6.38;1.55;;;16.00;99.90;;;;;;5091867;28;20040;-75
2022/09/19 11:56:15;;;;;;;10.25;2.00;;;16.30;99.90;;;;;;5098501;28;20050;-74
2022/09/19 11:58:44;;;;;;;11.55;2.03;;;16.50;99.90;;;;;;5097307;28;20036;-75
2022/09/19 12:01:31;;;;;;;10.40;1.80;;;16.50;99.90;;;;;;5094439;28;20075;-74
2022/09/19 12:04:24;;;;;;;9.50;1.58;;;16.50;99.90;;;;;;5097306;28;20450;-75
2022/09/19 12:07:29;;;;;;;9.70;1.80;;;16.70;99.90;;;;;;5098393;28;20085;-75
2022/09/19 12:10:04;;;;;;;11.88;1.63;;;16.40;99.90;;;;;;5097624;28;20071;-76
2022/09/19 12:12:36;;;;;;;9.25;1.70;;;16.70;99.90;;;;;;5102947;28;20076;-76
2022/09/19 12:15:22;;;;;;;12.38;1.52;;;17.00;99.90;;;;;;5102711;28;20039;-74
2022/09/19 12:18:05;;;;;;;11.88;2.47;;;17.30;99.90;;;;;;5094677;28;20036;-75
2022/09/19 12:20:47;;;;;;;11.88;2.05;;;17.30;99.90;;;;;;5112478;28;20036;-76
2022/09/19 12:26:44;;;;;;;10.45;2.00;;;16.80;99.90;;;;;;5106728;28;20090;-74
2022/09/19 12:29:34;;;;;;;11.50;2.08;;;16.80;99.90;;;;;;5104135;28;20054;-75
2022/09/19 12:32:14;;;;;;;10.95;2.30;;;16.70;99.90;;;;;;5107055;28;20054;-76
2022/09/19 12:34:50;;;;;;;9.00;2.00;;;16.50;99.90;;;;;;5094727;28;20032;-76
2022/09/19 12:37:19;;;;;;;13.82;1.75;;;16.50;99.90;;;;;;5086946;28;20078;-75
2022/09/19 12:40:24;;;;;;;8.77;1.80;;;16.60;99.90;;;;;;5096040;28;20607;-75
2022/09/19 12:42:56;;;;;;;10.43;1.77;;;16.70;99.90;;;;;;5104312;28;20114;-76
2022/09/19 12:45:27;;;;;;;10.57;2.08;;;16.70;99.90;;;;;;5107689;28;20046;-76
2022/09/19 12:48:20;;;;;;;13.50;2.63;;;17.10;99.90;;;;;;5104526;28;20040;-76
2022/09/19 12:50:52;;;;;;;9.25;2.22;;;17.40;99.90;;;;;;5106168;28;20075;-75
2022/09/19 12:53:21;;;;;;;10.43;2.10;;;17.30;99.90;;;;;;5101569;28;20045;-75
2022/09/19 12:56:08;;;;;;;5.95;1.60;;;17.40;99.90;;;;;;5101313;28;20101;-77
2022/09/19 12:59:02;;;;;;;11.02;1.80;;;17.40;99.90;;;;;;5098770;28;20390;-75
2022/09/19 13:01:37;;;;;;;9.90;1.88;;;17.00;99.90;;;;;;5102021;28;20069;-77
2022/09/19 13:04:21;;;;;;;7.60;1.88;;;16.60;99.90;;;;;;5107906;28;20031;-76
2022/09/19 13:06:49;;;;;;;8.15;1.90;;;16.80;99.90;;;;;;5107518;28;20515;-76
2022/09/19 13:09:25;;;;;;;11.68;2.05;;;16.80;99.90;;;;;;5091414;28;20040;-76
2022/09/19 13:12:10;;;;;;;13.35;1.70;;;17.10;99.90;;;;;;5074069;28;20048;-76
2022/09/19 13:14:47;;;;;;;10.98;2.33;;;17.30;99.90;;;;;;5091249;28;20039;-75
2022/09/19 13:25:39;;;;;;;11.95;1.98;;;17.00;99.90;;;;;;5090996;28;20056;-75
2022/09/19 13:28:18;;;;;;;10.45;2.20;;;17.00;99.90;;;;;;5091290;28;20506;-77
2022/09/19 13:30:50;;;;;;;9.80;2.28;;;16.80;99.90;;;;;;5090849;28;20040;-75